createdAt,value
2022-11-21T00:02:20.819Z,27.90
2022-11-21T00:04:49.029Z,30.40
2022-11-21T00:07:17.240Z,26.80
2022-11-21T00:09:45.309Z,25.60
2022-11-21T00:12:13.347Z,32.60
2022-11-21T00:14:41.376Z,29.30
2022-11-21T00:17:10.396Z,30.10
2022-11-21T00:19:38.398Z,27.80
2022-11-21T00:22:06.569Z,31.00
2022-11-21T00:24:34.846Z,29.10
2022-11-21T00:27:03.169Z,29.60
2022-11-21T00:29:31.296Z,32.20
2022-11-21T00:31:59.409Z,34.10
2022-11-21T00:34:27.804Z,32.10
2022-11-21T00:36:56.293Z,33.80
2022-11-21T00:39:24.345Z,33.50
2022-11-21T00:41:52.456Z,31.50
2022-11-21T00:44:20.492Z,33.60
2022-11-21T00:46:48.572Z,32.90
2022-11-21T00:49:16.685Z,36.00
2022-11-21T00:51:44.928Z,30.70
2022-11-21T00:54:13.112Z,31.30
2022-11-21T00:56:42.192Z,32.10
2022-11-21T00:59:10.444Z,31.40
2022-11-21T01:01:38.696Z,30.10
2022-11-21T01:04:06.891Z,30.10
2022-11-21T01:06:37.826Z,30.20
2022-11-21T01:09:06.341Z,28.50
2022-11-21T01:11:34.582Z,26.10
2022-11-21T01:14:02.982Z,27.00
2022-11-21T01:16:32.342Z,30.10
2022-11-21T01:19:00.736Z,31.90
2022-11-21T01:21:31.467Z,29.90
2022-11-21T01:24:01.537Z,27.10
2022-11-21T01:26:33.100Z,31.70
2022-11-21T01:29:01.191Z,28.90
2022-11-21T01:31:30.907Z,28.80
2022-11-21T01:34:00.701Z,29.90
2022-11-21T01:36:32.298Z,30.60
2022-11-21T01:39:03.837Z,31.80
2022-11-21T01:41:40.597Z,35.00
2022-11-21T01:44:21.274Z,36.00
2022-11-21T01:46:51.006Z,34.60
2022-11-21T01:49:27.634Z,33.60
2022-11-21T01:52:20.903Z,32.60
2022-11-21T01:55:10.306Z,30.50
2022-11-21T01:57:46.530Z,37.30
2022-11-21T02:00:27.644Z,31.60
2022-11-21T02:05:31.549Z,33.10
2022-11-21T02:08:06.377Z,33.20
2022-11-21T02:10:38.512Z,31.00
2022-11-21T02:13:07.188Z,31.50
2022-11-21T02:15:35.233Z,33.40
2022-11-21T02:18:03.366Z,33.20
2022-11-21T02:20:31.489Z,32.30
2022-11-21T02:23:08.800Z,31.70
2022-11-21T02:25:39.539Z,30.10
2022-11-21T02:28:12.133Z,32.70
2022-11-21T02:30:42.266Z,31.00
2022-11-21T02:33:11.801Z,29.60
2022-11-21T02:35:40.399Z,33.80
2022-11-21T02:38:27.047Z,31.50
2022-11-21T02:41:26.940Z,32.50
2022-11-21T02:44:29.987Z,38.00
2022-11-21T02:46:58.470Z,37.00
2022-11-21T02:49:41.482Z,39.60
2022-11-21T02:52:09.996Z,35.80
2022-11-21T02:54:38.063Z,37.90
2022-11-21T02:57:06.256Z,40.70
2022-11-21T02:59:34.368Z,37.70
2022-11-21T03:02:02.530Z,28.90
2022-11-21T03:04:30.930Z,37.50
2022-11-21T03:06:59.040Z,31.90
2022-11-21T03:09:27.616Z,36.80
2022-11-21T03:11:55.858Z,35.80
2022-11-21T03:14:24.007Z,34.00
2022-11-21T03:16:52.461Z,36.00
2022-11-21T03:19:20.748Z,33.60
2022-11-21T03:21:48.863Z,37.30
2022-11-21T03:24:16.952Z,39.80
2022-11-21T03:26:45.216Z,37.30
2022-11-21T03:29:13.247Z,38.90
2022-11-21T03:31:41.759Z,41.70
2022-11-21T03:34:09.876Z,40.00
2022-11-21T03:36:38.049Z,36.00
2022-11-21T03:39:06.362Z,37.20
2022-11-21T03:41:34.650Z,39.60
2022-11-21T03:44:04.462Z,38.20
2022-11-21T03:46:35.504Z,37.80
2022-11-21T03:49:03.754Z,34.10
2022-11-21T03:51:31.856Z,33.50
2022-11-21T03:54:00.417Z,34.00
2022-11-21T03:56:29.445Z,36.20
2022-11-21T03:58:57.664Z,37.60
2022-11-21T04:01:26.439Z,39.50
2022-11-21T04:03:54.771Z,34.70
2022-11-21T04:06:23.089Z,37.00
2022-11-21T04:08:52.845Z,39.40
2022-11-21T04:11:23.739Z,40.00
2022-11-21T04:16:20.565Z,37.00
2022-11-21T04:18:48.630Z,37.50
2022-11-21T04:21:16.621Z,33.40
2022-11-21T04:23:44.670Z,37.80
2022-11-21T04:26:12.662Z,37.90
2022-11-21T04:28:40.782Z,34.30
2022-11-21T04:31:11.033Z,33.80
2022-11-21T04:33:40.094Z,33.20
2022-11-21T04:36:09.171Z,33.30
2022-11-21T04:38:37.372Z,34.50
2022-11-21T04:41:05.507Z,34.20
2022-11-21T04:43:33.520Z,35.10
2022-11-21T04:46:02.064Z,32.70
2022-11-21T04:48:30.137Z,33.10
2022-11-21T04:50:58.975Z,32.30
2022-11-21T04:53:27.062Z,31.10
2022-11-21T04:55:55.233Z,31.40
2022-11-21T04:58:23.303Z,33.80
2022-11-21T05:00:51.370Z,32.60
2022-11-21T05:03:19.610Z,33.20
2022-11-21T05:05:48.407Z,30.00
2022-11-21T05:08:16.423Z,32.40
2022-11-21T05:11:02.812Z,33.90
2022-11-21T05:13:30.863Z,34.40
2022-11-21T05:15:58.994Z,30.90
2022-11-21T05:18:27.035Z,32.10
2022-11-21T05:20:55.111Z,29.40
2022-11-21T05:23:23.605Z,28.80
2022-11-21T05:25:51.642Z,27.90
2022-11-21T05:28:19.889Z,28.70
2022-11-21T05:30:47.988Z,26.40
2022-11-21T05:33:16.567Z,30.10
2022-11-21T05:35:44.667Z,30.10
2022-11-21T05:38:13.435Z,27.30
2022-11-21T05:40:41.827Z,26.10
2022-11-21T05:43:31.099Z,27.20
2022-11-21T05:45:59.366Z,29.10
2022-11-21T05:48:27.456Z,26.10
2022-11-21T05:50:55.498Z,25.30
2022-11-21T05:53:23.529Z,28.30
2022-11-21T05:55:52.062Z,25.60
2022-11-21T05:58:20.668Z,30.00
2022-11-21T06:00:48.730Z,28.10
2022-11-21T06:03:31.020Z,26.80
2022-11-21T06:06:02.077Z,28.70
2022-11-21T06:08:33.404Z,29.10
2022-11-21T06:11:03.130Z,29.40
2022-11-21T06:13:33.827Z,27.10
2022-11-21T06:16:08.276Z,26.10
2022-11-21T06:18:41.455Z,29.10
2022-11-21T06:21:14.863Z,27.10
2022-11-21T06:23:43.809Z,30.10
2022-11-21T06:26:14.564Z,31.90
2022-11-21T06:28:43.976Z,32.80
2022-11-21T06:31:16.846Z,33.40
2022-11-21T06:33:45.851Z,34.50
2022-11-21T06:36:17.209Z,28.30
2022-11-21T06:38:45.882Z,34.80
2022-11-21T06:41:16.704Z,34.50
2022-11-21T06:43:45.512Z,34.80
2022-11-21T06:46:15.659Z,37.80
2022-11-21T06:48:44.766Z,34.40
2022-11-21T06:51:22.429Z,39.10
2022-11-21T06:53:56.593Z,40.30
2022-11-21T06:56:26.343Z,36.30
2022-11-21T06:58:54.919Z,54.50
2022-11-21T07:01:24.417Z,41.70
2022-11-21T07:03:53.976Z,39.90
2022-11-21T07:06:22.883Z,40.60
2022-11-21T07:11:43.459Z,39.30
2022-11-21T07:14:11.625Z,36.00
2022-11-21T07:16:39.668Z,40.60
2022-11-21T07:19:07.778Z,39.90
2022-11-21T07:21:35.862Z,35.20
2022-11-21T07:24:04.257Z,39.10
2022-11-21T07:26:32.741Z,40.10
2022-11-21T07:29:00.808Z,38.80
2022-11-21T07:31:28.900Z,42.70
2022-11-21T07:33:57.432Z,41.50
2022-11-21T07:36:26.673Z,43.90
2022-11-21T07:38:55.171Z,42.60
2022-11-21T07:41:23.210Z,42.60
2022-11-21T07:43:51.322Z,43.00
2022-11-21T07:46:19.576Z,49.30
2022-11-21T07:48:47.637Z,43.50
2022-11-21T07:51:15.884Z,45.10
2022-11-21T07:53:43.958Z,48.60
2022-11-21T07:56:14.213Z,51.40
2022-11-21T07:58:42.331Z,49.70
2022-11-21T08:01:10.711Z,48.80
2022-11-21T08:03:38.928Z,46.80
2022-11-21T08:06:07.092Z,46.60
2022-11-21T08:08:35.444Z,46.40
2022-11-21T08:11:07.943Z,48.10
2022-11-21T08:13:36.174Z,48.30
2022-11-21T08:16:04.778Z,47.70
2022-11-21T08:18:32.975Z,47.90
2022-11-21T08:21:03.703Z,45.50
2022-11-21T08:23:32.620Z,50.60
2022-11-21T08:26:00.917Z,46.50
2022-11-21T08:28:29.163Z,50.90
2022-11-21T08:30:58.958Z,49.40
2022-11-21T08:33:28.607Z,52.20
2022-11-21T08:35:57.748Z,49.50
2022-11-21T08:38:26.414Z,47.80
2022-11-21T08:41:17.777Z,45.10
2022-11-21T08:43:48.824Z,43.30
2022-11-21T08:48:47.173Z,47.20
2022-11-21T08:51:15.569Z,45.10
2022-11-21T08:53:44.317Z,48.80
2022-11-21T08:56:13.058Z,45.10
2022-11-21T08:58:41.350Z,45.70
2022-11-21T09:01:10.221Z,46.10
2022-11-21T09:03:38.873Z,43.60
2022-11-21T09:06:08.399Z,48.80
2022-11-21T09:08:37.134Z,43.40
2022-11-21T09:11:10.248Z,45.10
2022-11-21T09:13:39.013Z,50.40
2022-11-21T09:16:26.462Z,48.10
2022-11-21T09:18:54.714Z,45.50
2022-11-21T09:21:23.248Z,52.40
2022-11-21T09:23:51.350Z,46.70
2022-11-21T09:26:19.501Z,58.20
2022-11-21T09:28:47.684Z,54.40
2022-11-21T09:31:17.869Z,50.20
2022-11-21T09:33:47.808Z,52.90
2022-11-21T09:36:18.810Z,55.00
2022-11-21T09:38:46.912Z,50.70
2022-11-21T09:41:53.536Z,55.10
2022-11-21T09:44:50.183Z,50.30
2022-11-21T09:47:30.477Z,54.50
2022-11-21T09:50:20.550Z,52.30
2022-11-21T09:53:21.290Z,51.70
2022-11-21T09:56:03.583Z,52.40
2022-11-21T09:58:44.273Z,48.40
2022-11-21T10:01:14.145Z,53.60
2022-11-21T10:03:49.633Z,47.40
2022-11-21T10:06:26.100Z,55.50
2022-11-21T10:08:57.256Z,45.10
2022-11-21T10:12:07.108Z,46.00
2022-11-21T10:14:46.394Z,51.80
2022-11-21T10:17:30.179Z,51.70
2022-11-21T10:20:22.617Z,47.10
2022-11-21T10:22:56.582Z,54.00
2022-11-21T10:25:28.467Z,50.40
2022-11-21T10:28:28.375Z,50.60
2022-11-21T10:30:59.753Z,55.40
2022-11-21T10:36:07.736Z,49.00
2022-11-21T10:38:42.200Z,59.20
2022-11-21T10:41:49.873Z,49.00
2022-11-21T10:44:48.404Z,49.30
2022-11-21T10:47:35.718Z,47.20
2022-11-21T10:50:20.776Z,53.40
2022-11-21T10:52:53.897Z,48.60
2022-11-21T10:55:22.025Z,51.10
2022-11-21T10:57:51.907Z,31.00
2022-11-21T11:00:24.253Z,49.00
2022-11-21T11:02:56.031Z,51.80
2022-11-21T11:05:31.832Z,55.80
2022-11-21T11:08:15.199Z,41.80
2022-11-21T11:11:02.247Z,51.30
2022-11-21T11:13:45.977Z,49.90
2022-11-21T11:16:18.035Z,48.20
2022-11-21T11:18:58.452Z,45.40
2022-11-21T11:21:28.650Z,50.80
2022-11-21T11:24:27.632Z,52.10
2022-11-21T11:27:02.803Z,52.80
2022-11-21T11:29:35.398Z,49.20
2022-11-21T11:32:20.589Z,54.80
2022-11-21T11:34:49.695Z,49.40
2022-11-21T11:37:20.771Z,49.00
2022-11-21T11:40:28.601Z,53.00
2022-11-21T11:43:38.590Z,55.60
2022-11-21T11:46:40.912Z,52.80
2022-11-21T11:49:21.291Z,49.90
2022-11-21T11:51:59.670Z,46.60
2022-11-21T11:54:34.912Z,50.00
2022-11-21T11:57:04.852Z,42.20
2022-11-21T11:59:42.475Z,50.40
2022-11-21T12:02:22.361Z,44.00
2022-11-21T12:05:09.409Z,44.10
2022-11-21T12:11:11.785Z,48.50
2022-11-21T12:13:41.754Z,46.30
2022-11-21T12:16:14.686Z,44.30
2022-11-21T12:18:47.006Z,49.20
2022-11-21T12:21:16.942Z,40.00
2022-11-21T12:23:50.603Z,44.10
2022-11-21T12:26:37.036Z,47.10
2022-11-21T12:29:23.590Z,47.40
2022-11-21T12:32:10.208Z,49.50
2022-11-21T12:34:57.938Z,44.50
2022-11-21T12:37:38.896Z,44.20
2022-11-21T12:40:24.242Z,42.90
2022-11-21T12:43:01.369Z,43.90
2022-11-21T12:45:47.156Z,42.10
2022-11-21T12:49:07.241Z,42.20
2022-11-21T12:52:28.426Z,34.10
2022-11-21T12:55:18.820Z,34.80
2022-11-21T12:58:27.553Z,37.40
2022-11-21T13:01:34.624Z,35.30
2022-11-21T13:04:16.042Z,34.60
2022-11-21T13:06:48.421Z,38.10
2022-11-21T13:09:20.901Z,34.90
2022-11-21T13:12:32.894Z,38.50
2022-11-21T13:17:54.864Z,37.50
2022-11-21T13:20:34.690Z,30.70
2022-11-21T13:23:07.084Z,33.90
2022-11-21T13:25:38.623Z,33.10
2022-11-21T13:28:13.562Z,31.90
2022-11-21T13:30:52.561Z,31.00
2022-11-21T13:33:48.220Z,24.10
2022-11-21T13:36:39.200Z,27.50
2022-11-21T13:39:07.890Z,31.50
2022-11-21T13:41:55.073Z,27.70
2022-11-21T13:44:32.893Z,32.00
2022-11-21T13:47:05.487Z,29.70
2022-11-21T13:49:56.308Z,34.80
2022-11-21T13:52:43.003Z,31.00
2022-11-21T13:55:39.557Z,33.90
2022-11-21T13:58:19.905Z,35.90
2022-11-21T14:01:36.489Z,36.50
2022-11-21T14:04:29.061Z,44.30
2022-11-21T14:07:34.255Z,37.00
2022-11-21T14:10:06.460Z,29.10
2022-11-21T14:12:44.669Z,32.00
2022-11-21T14:15:24.791Z,29.50
2022-11-21T14:18:01.475Z,28.20
2022-11-21T14:20:57.518Z,29.30
2022-11-21T14:23:28.557Z,26.10
2022-11-21T14:26:07.217Z,28.10
2022-11-21T14:28:35.638Z,30.00
2022-11-21T14:31:08.919Z,29.70
2022-11-21T14:33:41.597Z,32.10
2022-11-21T14:36:31.908Z,31.10
2022-11-21T14:42:11.272Z,28.60
2022-11-21T14:44:42.023Z,30.80
2022-11-21T14:47:26.207Z,27.80
2022-11-21T14:50:00.958Z,28.30
2022-11-21T14:52:34.208Z,31.30
2022-11-21T14:57:57.863Z,25.80
2022-11-21T15:03:24.136Z,25.20
2022-11-21T15:06:07.769Z,26.80
2022-11-21T15:11:47.176Z,28.10
2022-11-21T15:14:26.905Z,24.80
2022-11-21T15:16:58.060Z,26.50
2022-11-21T15:19:29.154Z,26.20
2022-11-21T15:24:42.832Z,23.60
2022-11-21T15:27:26.982Z,24.20
2022-11-21T15:30:23.029Z,23.50
2022-11-21T15:33:13.855Z,25.50
2022-11-21T15:35:56.912Z,33.00
2022-11-21T15:38:50.363Z,33.20
2022-11-21T15:41:18.385Z,29.20
2022-11-21T15:44:20.387Z,32.30
2022-11-21T15:46:52.142Z,24.70
2022-11-21T15:49:35.623Z,23.90
2022-11-21T15:52:12.495Z,27.80
2022-11-21T15:54:40.659Z,30.90
2022-11-21T15:57:09.997Z,34.00
2022-11-21T15:59:38.788Z,36.30
2022-11-21T16:02:12.553Z,34.40
2022-11-21T16:04:42.162Z,26.20
2022-11-21T16:07:10.403Z,26.70
2022-11-21T16:09:39.603Z,33.30
2022-11-21T16:12:09.368Z,36.50
2022-11-21T16:14:37.595Z,35.50
2022-11-21T16:17:05.773Z,27.90
2022-11-21T16:19:34.442Z,23.90
2022-11-21T16:22:03.310Z,24.60
2022-11-21T16:24:31.405Z,23.30
2022-11-21T16:26:59.873Z,25.20
2022-11-21T16:29:28.422Z,23.90
2022-11-21T16:31:56.829Z,27.80
2022-11-21T16:34:27.627Z,26.00
2022-11-21T16:36:55.999Z,21.50
2022-11-21T16:39:24.238Z,19.50
2022-11-21T16:41:53.523Z,18.60
2022-11-21T16:44:21.623Z,17.30
2022-11-21T16:46:54.672Z,17.80
2022-11-21T16:49:27.083Z,18.70
2022-11-21T16:51:59.133Z,20.10
2022-11-21T16:54:27.441Z,21.40
2022-11-21T16:56:55.845Z,28.70
2022-11-21T16:59:25.519Z,26.80
2022-11-21T17:01:54.357Z,38.30
2022-11-21T17:04:23.079Z,41.90
2022-11-21T17:06:51.219Z,40.70
2022-11-21T17:09:19.961Z,35.80
2022-11-21T17:11:48.149Z,28.10
2022-11-21T17:14:16.770Z,33.00
2022-11-21T17:16:46.001Z,27.40
2022-11-21T17:19:16.571Z,30.20
2022-11-21T17:21:45.256Z,26.80
2022-11-21T17:24:13.735Z,31.20
2022-11-21T17:26:41.955Z,23.60
2022-11-21T17:29:10.379Z,27.60
2022-11-21T17:31:38.674Z,24.00
2022-11-21T17:34:07.325Z,17.90
2022-11-21T17:36:35.495Z,17.80
2022-11-21T17:39:04.193Z,18.80
2022-11-21T17:41:35.580Z,17.40
2022-11-21T17:44:03.918Z,18.40
2022-11-21T17:46:33.049Z,24.70
2022-11-21T17:49:02.402Z,33.70
2022-11-21T17:51:38.122Z,70.90
2022-11-21T17:54:11.300Z,44.10
2022-11-21T17:56:45.403Z,29.30
2022-11-21T17:59:15.009Z,34.00
2022-11-21T18:01:43.503Z,23.30
2022-11-21T18:04:15.330Z,24.40
2022-11-21T18:06:44.115Z,29.50
2022-11-21T18:09:13.265Z,29.00
2022-11-21T18:11:42.153Z,22.70
2022-11-21T18:14:12.751Z,24.10
2022-11-21T18:16:46.064Z,23.50
2022-11-21T18:19:18.749Z,23.80
2022-11-21T18:21:47.340Z,23.60
2022-11-21T18:24:15.783Z,25.60
2022-11-21T18:26:44.364Z,20.20
2022-11-21T18:32:04.152Z,19.00
2022-11-21T18:34:32.802Z,21.90
2022-11-21T18:37:01.331Z,21.00
2022-11-21T18:39:30.283Z,24.30
2022-11-21T18:41:59.390Z,21.60
2022-11-21T18:44:27.666Z,18.50
2022-11-21T18:46:55.865Z,17.50
2022-11-21T18:49:24.205Z,18.10
2022-11-21T18:51:52.640Z,17.10
2022-11-21T18:54:21.311Z,18.70
2022-11-21T18:56:50.149Z,21.50
2022-11-21T18:59:18.353Z,20.40
2022-11-21T19:01:47.303Z,21.20
2022-11-21T19:04:15.863Z,20.90
2022-11-21T19:06:44.029Z,21.70
2022-11-21T19:09:12.531Z,27.00
2022-11-21T19:11:41.527Z,27.40
2022-11-21T19:14:09.810Z,21.20
2022-11-21T19:16:39.533Z,22.40
2022-11-21T19:21:59.204Z,18.70
2022-11-21T19:24:27.551Z,19.80
2022-11-21T19:26:56.366Z,18.00
2022-11-21T19:29:24.944Z,20.80
2022-11-21T19:31:53.983Z,22.40
2022-11-21T19:34:22.893Z,21.90
2022-11-21T19:37:00.581Z,19.50
2022-11-21T19:39:32.300Z,20.90
2022-11-21T19:42:01.040Z,23.90
2022-11-21T19:44:29.716Z,21.40
2022-11-21T19:46:58.735Z,24.50
2022-11-21T19:49:27.704Z,22.80
2022-11-21T19:51:56.502Z,18.70
2022-11-21T19:54:25.269Z,21.20
2022-11-21T19:56:55.500Z,22.70
2022-11-21T19:59:24.039Z,20.90
2022-11-21T20:01:53.378Z,20.80
2022-11-21T20:04:23.848Z,20.60
2022-11-21T20:06:54.566Z,23.10
2022-11-21T20:09:24.804Z,20.10
2022-11-21T20:11:56.613Z,20.60
2022-11-21T20:16:57.842Z,18.80
2022-11-21T20:19:27.521Z,21.80
2022-11-21T20:21:56.703Z,22.90
2022-11-21T20:24:29.354Z,23.90
2022-11-21T20:26:59.970Z,21.80
2022-11-21T20:29:29.822Z,24.60
2022-11-21T20:32:01.880Z,22.40
2022-11-21T20:34:32.288Z,22.40
2022-11-21T20:37:05.020Z,29.80
2022-11-21T20:39:35.725Z,30.10
2022-11-21T20:42:07.457Z,28.50
2022-11-21T20:47:29.281Z,28.20
2022-11-21T20:49:57.869Z,31.30
2022-11-21T20:55:15.211Z,24.00
2022-11-21T20:57:44.230Z,25.40
2022-11-21T21:00:13.306Z,24.70
2022-11-21T21:02:41.626Z,25.10
2022-11-21T21:05:10.042Z,22.10
2022-11-21T21:07:40.791Z,22.60
2022-11-21T21:10:09.842Z,23.30
2022-11-21T21:12:38.756Z,19.40
2022-11-21T21:15:07.711Z,23.00
2022-11-21T21:17:36.766Z,22.20
2022-11-21T21:20:07.689Z,21.00
2022-11-21T21:22:36.074Z,19.60
2022-11-21T21:25:04.802Z,21.30
2022-11-21T21:27:33.988Z,19.70
2022-11-21T21:30:04.091Z,20.10
2022-11-21T21:32:32.184Z,20.20
2022-11-21T21:35:00.439Z,18.50
2022-11-21T21:37:29.206Z,19.60
2022-11-21T21:39:57.833Z,19.80
2022-11-21T21:42:26.120Z,19.90
2022-11-21T21:44:55.073Z,20.10
2022-11-21T21:47:23.382Z,21.40
2022-11-21T21:49:51.463Z,20.70
2022-11-21T21:52:20.120Z,20.70
2022-11-21T21:54:49.050Z,21.90
2022-11-21T21:57:17.150Z,19.80
2022-11-21T21:59:45.293Z,21.60
2022-11-21T22:02:14.577Z,20.90
2022-11-21T22:04:42.731Z,22.60
2022-11-21T22:07:11.586Z,24.80
2022-11-21T22:09:39.785Z,23.40
2022-11-21T22:12:08.305Z,28.20
2022-11-21T22:14:36.536Z,25.00
2022-11-21T22:17:04.627Z,25.40
2022-11-21T22:19:32.738Z,25.10
2022-11-21T22:22:01.982Z,22.90
2022-11-21T22:24:30.159Z,25.30
2022-11-21T22:26:58.689Z,24.90
2022-11-21T22:29:26.938Z,27.30
2022-11-21T22:31:55.765Z,23.80
2022-11-21T22:34:24.070Z,25.90
2022-11-21T22:36:52.156Z,25.50
2022-11-21T22:39:20.403Z,24.70
2022-11-21T22:41:48.464Z,26.80
2022-11-21T22:44:16.743Z,24.90
2022-11-21T22:46:44.821Z,24.40
2022-11-21T22:49:14.597Z,26.10
2022-11-21T22:51:43.863Z,25.20
2022-11-21T22:54:13.163Z,25.10
2022-11-21T22:56:41.679Z,24.60
2022-11-21T22:59:14.020Z,23.60
2022-11-21T23:01:42.285Z,25.30
2022-11-21T23:04:16.174Z,25.10
2022-11-21T23:06:45.764Z,25.80
2022-11-21T23:09:13.852Z,24.70
2022-11-21T23:11:41.916Z,25.30
2022-11-21T23:14:10.559Z,23.20
2022-11-21T23:16:38.608Z,27.10
2022-11-21T23:19:07.321Z,27.00
2022-11-21T23:21:35.349Z,26.50
2022-11-21T23:24:03.860Z,26.70
2022-11-21T23:26:31.949Z,28.00
2022-11-21T23:29:06.744Z,24.60
2022-11-21T23:31:36.651Z,23.60
2022-11-21T23:34:04.938Z,26.50
2022-11-21T23:36:33.075Z,29.00
2022-11-21T23:39:01.140Z,28.70
2022-11-21T23:41:29.321Z,30.20
2022-11-21T23:43:59.947Z,26.20
2022-11-21T23:46:29.219Z,32.50
2022-11-21T23:48:57.797Z,27.40
2022-11-21T23:51:25.942Z,30.10
2022-11-21T23:53:54.203Z,29.50
2022-11-21T23:56:22.521Z,33.60
2022-11-21T23:58:50.594Z,32.30
